Assaria, Kansas
Current Conditions -  °F | °C
As of 10:53 AM on Friday 31 Oct 2014 (Local Time) from KSLN Reporting Station
Clear Clear  
Wind Chill: 28°   Ceiling: Unl
Heat Index: 37°   Visibility: 10mi
Dew Point: 23°   Wind: 15mph
Humidity: 57%   Direction: 20°NNE
Pressure: 30.57"   Gusts: NA
Location:  38.68°N, 97.6°W
Report Text: KSLN 311553Z 02013KT 10SM CLR 03/M05 A3057 RMK AO2 SLP357 T00281050
Loading
Personal Weather Stations






























Interactive Weather Map
Tropical Storm Tracking
New forecast layout! Learn more

10-Day Weather Forecast

Advertisements
Track Severe Weather on mobile